sensor_id;sensor_type;location;lat;lon;timestamp;pressure;altitude;pressure_sealevel;temperature;humidity
10097;BME280;5087;42.662;23.466;2022-12-18T00:02:21;96127.03;;;5.65;100.00
10097;BME280;5087;42.662;23.466;2022-12-18T00:04:48;96121.91;;;5.64;100.00
10097;BME280;5087;42.662;23.466;2022-12-18T00:07:15;96114.31;;;5.45;100.00
10097;BME280;5087;42.662;23.466;2022-12-18T00:09:42;96129.97;;;5.48;100.00
10097;BME280;5087;42.662;23.466;2022-12-18T00:12:10;96142.09;;;5.56;100.00
10097;BME280;5087;42.662;23.466;2022-12-18T00:14:38;96146.91;;;5.49;100.00
10097;BME280;5087;42.662;23.466;2022-12-18T00:17:05;96138.50;;;5.30;100.00
10097;BME280;5087;42.662;23.466;2022-12-18T00:19:32;96115.06;;;5.15;100.00
10097;BME280;5087;42.662;23.466;2022-12-18T00:21:59;96144.72;;;5.30;100.00
10097;BME280;5087;42.662;23.466;2022-12-18T00:24:26;96137.94;;;5.12;100.00
10097;BME280;5087;42.662;23.466;2022-12-18T00:26:54;96161.94;;;5.29;100.00
10097;BME280;5087;42.662;23.466;2022-12-18T00:29:21;96159.47;;;5.12;100.00
10097;BME280;5087;42.662;23.466;2022-12-18T00:31:49;96160.25;;;5.07;100.00
10097;BME280;5087;42.662;23.466;2022-12-18T00:34:16;96139.72;;;4.96;100.00
10097;BME280;5087;42.662;23.466;2022-12-18T00:36:44;96165.13;;;5.16;100.00
10097;BME280;5087;42.662;23.466;2022-12-18T00:39:11;96161.09;;;5.13;100.00
10097;BME280;5087;42.662;23.466;2022-12-18T00:41:38;96173.16;;;5.11;100.00
10097;BME280;5087;42.662;23.466;2022-12-18T00:44:26;96179.59;;;5.10;100.00
10097;BME280;5087;42.662;23.466;2022-12-18T00:46:55;96178.81;;;5.09;100.00
10097;BME280;5087;42.662;23.466;2022-12-18T00:49:24;96184.47;;;5.07;100.00
10097;BME280;5087;42.662;23.466;2022-12-18T00:51:52;96158.31;;;4.98;100.00
10097;BME280;5087;42.662;23.466;2022-12-18T00:54:19;96147.47;;;4.82;100.00
10097;BME280;5087;42.662;23.466;2022-12-18T00:56:46;96194.09;;;4.98;100.00
10097;BME280;5087;42.662;23.466;2022-12-18T00:59:13;96192.94;;;4.84;100.00
10097;BME280;5087;42.662;23.466;2022-12-18T01:01:41;96172.94;;;4.69;100.00
10097;BME280;5087;42.662;23.466;2022-12-18T01:04:09;96198.13;;;5.01;100.00
10097;BME280;5087;42.662;23.466;2022-12-18T01:06:37;96171.06;;;4.70;100.00
10097;BME280;5087;42.662;23.466;2022-12-18T01:09:04;96206.91;;;4.81;100.00
10097;BME280;5087;42.662;23.466;2022-12-18T01:11:35;96205.84;;;4.82;100.00
10097;BME280;5087;42.662;23.466;2022-12-18T01:14:04;96209.06;;;4.79;100.00
10097;BME280;5087;42.662;23.466;2022-12-18T01:16:31;96186.09;;;4.66;100.00
10097;BME280;5087;42.662;23.466;2022-12-18T01:18:58;96207.13;;;4.74;100.00
10097;BME280;5087;42.662;23.466;2022-12-18T01:21:28;96206.28;;;4.68;100.00
10097;BME280;5087;42.662;23.466;2022-12-18T01:23:56;96194.38;;;4.59;100.00
10097;BME280;5087;42.662;23.466;2022-12-18T01:26:25;96200.88;;;4.63;100.00
10097;BME280;5087;42.662;23.466;2022-12-18T01:28:55;96198.59;;;4.50;100.00
10097;BME280;5087;42.662;23.466;2022-12-18T01:31:24;96199.66;;;4.49;100.00
10097;BME280;5087;42.662;23.466;2022-12-18T01:33:52;96204.75;;;4.45;100.00
10097;BME280;5087;42.662;23.466;2022-12-18T01:36:21;96203.16;;;4.44;100.00
10097;BME280;5087;42.662;23.466;2022-12-18T01:38:50;96219.59;;;4.48;100.00
10097;BME280;5087;42.662;23.466;2022-12-18T01:41:24;96217.38;;;4.39;100.00
10097;BME280;5087;42.662;23.466;2022-12-18T01:43:53;96221.16;;;4.43;100.00
10097;BME280;5087;42.662;23.466;2022-12-18T01:46:26;96223.03;;;4.43;100.00
10097;BME280;5087;42.662;23.466;2022-12-18T01:48:58;96229.25;;;4.49;100.00
10097;BME280;5087;42.662;23.466;2022-12-18T01:51:27;96223.97;;;4.26;100.00
10097;BME280;5087;42.662;23.466;2022-12-18T01:53:56;96230.75;;;4.34;100.00
10097;BME280;5087;42.662;23.466;2022-12-18T01:56:24;96227.72;;;4.25;100.00
10097;BME280;5087;42.662;23.466;2022-12-18T01:58:55;96244.16;;;4.29;100.00
10097;BME280;5087;42.662;23.466;2022-12-18T02:01:23;96231.66;;;4.18;100.00
10097;BME280;5087;42.662;23.466;2022-12-18T02:03:51;96170.84;;;3.79;100.00
10097;BME280;5087;42.662;23.466;2022-12-18T02:06:25;96233.75;;;4.10;100.00
10097;BME280;5087;42.662;23.466;2022-12-18T02:09:02;96245.09;;;4.18;100.00
10097;BME280;5087;42.662;23.466;2022-12-18T02:11:40;96245.09;;;4.18;100.00
10097;BME280;5087;42.662;23.466;2022-12-18T02:14:18;96240.50;;;4.13;100.00
10097;BME280;5087;42.662;23.466;2022-12-18T02:16:52;96229.63;;;3.98;100.00
10097;BME280;5087;42.662;23.466;2022-12-18T02:19:38;96252.31;;;4.12;100.00
10097;BME280;5087;42.662;23.466;2022-12-18T02:25:15;96259.16;;;3.98;100.00
10097;BME280;5087;42.662;23.466;2022-12-18T02:27:50;96260.56;;;4.05;100.00
10097;BME280;5087;42.662;23.466;2022-12-18T02:30:20;96234.56;;;3.84;100.00
10097;BME280;5087;42.662;23.466;2022-12-18T02:32:50;96268.16;;;3.86;100.00
10097;BME280;5087;42.662;23.466;2022-12-18T02:35:22;96259.81;;;3.83;100.00
10097;BME280;5087;42.662;23.466;2022-12-18T02:37:54;96257.41;;;3.86;100.00
10097;BME280;5087;42.662;23.466;2022-12-18T02:40:24;96267.28;;;3.80;100.00
10097;BME280;5087;42.662;23.466;2022-12-18T02:42:55;96265.34;;;3.76;100.00
10097;BME280;5087;42.662;23.466;2022-12-18T02:45:23;96266.19;;;3.76;100.00
10097;BME280;5087;42.662;23.466;2022-12-18T02:47:52;96249.19;;;3.71;100.00
10097;BME280;5087;42.662;23.466;2022-12-18T02:50:23;96263.44;;;3.71;100.00
10097;BME280;5087;42.662;23.466;2022-12-18T02:53:05;96252.94;;;3.70;100.00
10097;BME280;5087;42.662;23.466;2022-12-18T02:55:47;96239.41;;;3.59;100.00
10097;BME280;5087;42.662;23.466;2022-12-18T02:58:26;96239.75;;;3.46;100.00
10097;BME280;5087;42.662;23.466;2022-12-18T03:01:04;96228.47;;;3.44;100.00
10097;BME280;5087;42.662;23.466;2022-12-18T03:03:39;96245.34;;;3.39;100.00
10097;BME280;5087;42.662;23.466;2022-12-18T03:06:13;96262.81;;;3.42;100.00
10097;BME280;5087;42.662;23.466;2022-12-18T03:08:46;96280.53;;;3.43;100.00
10097;BME280;5087;42.662;23.466;2022-12-18T03:11:16;96272.34;;;3.32;100.00
10097;BME280;5087;42.662;23.466;2022-12-18T03:14:07;96280.97;;;3.35;100.00
10097;BME280;5087;42.662;23.466;2022-12-18T03:16:36;96180.28;;;2.71;100.00
10097;BME280;5087;42.662;23.466;2022-12-18T03:19:11;96277.56;;;3.22;100.00
10097;BME280;5087;42.662;23.466;2022-12-18T03:21:43;96259.22;;;3.14;100.00
10097;BME280;5087;42.662;23.466;2022-12-18T03:24:15;96286.28;;;3.29;100.00
10097;BME280;5087;42.662;23.466;2022-12-18T03:26:46;96273.03;;;3.23;100.00
10097;BME280;5087;42.662;23.466;2022-12-18T03:29:21;96304.38;;;3.39;100.00
10097;BME280;5087;42.662;23.466;2022-12-18T03:31:53;96296.81;;;3.36;100.00
10097;BME280;5087;42.662;23.466;2022-12-18T03:34:26;96302.81;;;3.43;100.00
10097;BME280;5087;42.662;23.466;2022-12-18T03:36:58;96300.00;;;3.33;100.00
10097;BME280;5087;42.662;23.466;2022-12-18T03:39:28;96280.50;;;3.21;100.00
10097;BME280;5087;42.662;23.466;2022-12-18T03:42:03;96295.69;;;3.32;100.00
10097;BME280;5087;42.662;23.466;2022-12-18T03:44:41;96290.66;;;3.19;100.00
10097;BME280;5087;42.662;23.466;2022-12-18T03:47:14;96302.03;;;3.26;100.00
10097;BME280;5087;42.662;23.466;2022-12-18T03:49:47;96339.41;;;3.49;100.00
10097;BME280;5087;42.662;23.466;2022-12-18T03:52:24;96319.28;;;3.30;100.00
10097;BME280;5087;42.662;23.466;2022-12-18T03:54:55;96334.72;;;3.40;100.00
10097;BME280;5087;42.662;23.466;2022-12-18T03:57:26;96349.03;;;3.45;100.00
10097;BME280;5087;42.662;23.466;2022-12-18T04:00:00;96326.28;;;3.31;100.00
10097;BME280;5087;42.662;23.466;2022-12-18T04:02:42;96346.03;;;3.42;100.00
10097;BME280;5087;42.662;23.466;2022-12-18T04:05:16;96338.66;;;3.32;100.00
10097;BME280;5087;42.662;23.466;2022-12-18T04:07:45;96320.44;;;3.17;100.00
10097;BME280;5087;42.662;23.466;2022-12-18T04:10:15;96348.06;;;3.35;100.00
10097;BME280;5087;42.662;23.466;2022-12-18T04:12:44;96339.28;;;3.22;100.00
10097;BME280;5087;42.662;23.466;2022-12-18T04:15:14;96358.31;;;3.21;100.00
10097;BME280;5087;42.662;23.466;2022-12-18T04:17:47;96354.75;;;3.15;100.00
10097;BME280;5087;42.662;23.466;2022-12-18T04:20:17;96348.00;;;3.12;100.00
10097;BME280;5087;42.662;23.466;2022-12-18T04:22:45;96341.84;;;2.95;100.00
10097;BME280;5087;42.662;23.466;2022-12-18T04:25:13;96318.50;;;2.78;100.00
10097;BME280;5087;42.662;23.466;2022-12-18T04:27:52;96282.66;;;2.50;100.00
10097;BME280;5087;42.662;23.466;2022-12-18T04:30:21;96336.88;;;2.87;100.00
10097;BME280;5087;42.662;23.466;2022-12-18T04:32:48;96357.38;;;2.93;100.00
10097;BME280;5087;42.662;23.466;2022-12-18T04:35:16;96386.78;;;3.22;100.00
10097;BME280;5087;42.662;23.466;2022-12-18T04:37:44;96366.06;;;3.17;100.00
10097;BME280;5087;42.662;23.466;2022-12-18T04:40:12;96293.16;;;2.69;100.00
10097;BME280;5087;42.662;23.466;2022-12-18T04:42:43;96349.72;;;3.01;100.00
10097;BME280;5087;42.662;23.466;2022-12-18T04:45:11;96394.84;;;3.22;100.00
10097;BME280;5087;42.662;23.466;2022-12-18T04:47:40;96363.53;;;2.93;100.00
10097;BME280;5087;42.662;23.466;2022-12-18T04:50:07;96378.50;;;3.06;100.00
10097;BME280;5087;42.662;23.466;2022-12-18T04:52:35;96361.09;;;2.92;100.00
10097;BME280;5087;42.662;23.466;2022-12-18T04:55:02;96396.22;;;3.07;100.00
10097;BME280;5087;42.662;23.466;2022-12-18T04:57:31;96408.06;;;3.11;100.00
10097;BME280;5087;42.662;23.466;2022-12-18T04:59:58;96395.75;;;3.10;100.00
10097;BME280;5087;42.662;23.466;2022-12-18T05:02:25;96363.53;;;2.76;100.00
10097;BME280;5087;42.662;23.466;2022-12-18T05:04:54;96405.78;;;3.03;100.00
10097;BME280;5087;42.662;23.466;2022-12-18T05:07:21;96400.28;;;2.93;100.00
10097;BME280;5087;42.662;23.466;2022-12-18T05:09:48;96389.38;;;2.82;100.00
10097;BME280;5087;42.662;23.466;2022-12-18T05:12:15;96409.72;;;2.95;100.00
10097;BME280;5087;42.662;23.466;2022-12-18T05:14:43;96385.28;;;2.63;100.00
10097;BME280;5087;42.662;23.466;2022-12-18T05:17:10;96451.84;;;3.12;100.00
10097;BME280;5087;42.662;23.466;2022-12-18T05:19:38;96422.31;;;2.66;100.00
10097;BME280;5087;42.662;23.466;2022-12-18T05:22:10;96438.75;;;2.98;100.00
10097;BME280;5087;42.662;23.466;2022-12-18T05:24:37;96456.75;;;3.03;100.00
10097;BME280;5087;42.662;23.466;2022-12-18T05:27:05;96468.06;;;3.05;100.00
10097;BME280;5087;42.662;23.466;2022-12-18T05:29:32;96452.75;;;2.89;100.00
10097;BME280;5087;42.662;23.466;2022-12-18T05:31:59;96456.28;;;2.89;100.00
10097;BME280;5087;42.662;23.466;2022-12-18T05:34:26;96455.78;;;2.92;100.00
10097;BME280;5087;42.662;23.466;2022-12-18T05:36:54;96479.63;;;3.06;100.00
10097;BME280;5087;42.662;23.466;2022-12-18T05:39:22;96478.97;;;2.98;100.00
10097;BME280;5087;42.662;23.466;2022-12-18T05:41:49;96466.88;;;2.84;100.00
10097;BME280;5087;42.662;23.466;2022-12-18T05:44:17;96467.53;;;2.74;100.00
10097;BME280;5087;42.662;23.466;2022-12-18T05:46:44;96487.41;;;2.90;100.00
10097;BME280;5087;42.662;23.466;2022-12-18T05:49:11;96478.16;;;2.69;100.00
10097;BME280;5087;42.662;23.466;2022-12-18T05:51:38;96495.16;;;2.75;100.00
10097;BME280;5087;42.662;23.466;2022-12-18T05:54:05;96496.25;;;2.91;100.00
10097;BME280;5087;42.662;23.466;2022-12-18T05:56:34;96484.09;;;2.71;100.00
10097;BME280;5087;42.662;23.466;2022-12-18T05:59:01;96505.84;;;2.87;100.00
10097;BME280;5087;42.662;23.466;2022-12-18T06:01:28;96481.84;;;2.80;100.00
10097;BME280;5087;42.662;23.466;2022-12-18T06:03:55;96497.59;;;2.76;100.00
10097;BME280;5087;42.662;23.466;2022-12-18T06:06:25;96506.47;;;2.65;100.00
10097;BME280;5087;42.662;23.466;2022-12-18T06:08:53;96511.38;;;2.68;100.00
10097;BME280;5087;42.662;23.466;2022-12-18T06:11:22;96510.47;;;2.62;100.00
10097;BME280;5087;42.662;23.466;2022-12-18T06:13:52;96522.56;;;2.65;100.00
10097;BME280;5087;42.662;23.466;2022-12-18T06:16:20;96507.34;;;2.53;100.00
10097;BME280;5087;42.662;23.466;2022-12-18T06:18:47;96520.28;;;2.57;100.00
10097;BME280;5087;42.662;23.466;2022-12-18T06:21:15;96527.25;;;2.58;100.00
10097;BME280;5087;42.662;23.466;2022-12-18T06:23:42;96536.13;;;2.58;100.00
10097;BME280;5087;42.662;23.466;2022-12-18T06:26:11;96506.44;;;2.36;100.00
10097;BME280;5087;42.662;23.466;2022-12-18T06:28:39;96510.75;;;2.37;100.00
10097;BME280;5087;42.662;23.466;2022-12-18T06:31:08;96537.41;;;2.56;100.00
10097;BME280;5087;42.662;23.466;2022-12-18T06:33:35;96537.94;;;2.69;100.00
10097;BME280;5087;42.662;23.466;2022-12-18T06:36:05;96534.84;;;2.61;100.00
10097;BME280;5087;42.662;23.466;2022-12-18T06:38:33;96507.97;;;2.32;100.00
10097;BME280;5087;42.662;23.466;2022-12-18T06:41:00;96535.41;;;2.63;100.00
10097;BME280;5087;42.662;23.466;2022-12-18T06:43:27;96515.84;;;2.50;100.00
10097;BME280;5087;42.662;23.466;2022-12-18T06:45:58;96547.53;;;2.65;100.00
10097;BME280;5087;42.662;23.466;2022-12-18T06:48:27;96536.13;;;2.58;100.00
10097;BME280;5087;42.662;23.466;2022-12-18T06:50:55;96561.63;;;2.73;100.00
10097;BME280;5087;42.662;23.466;2022-12-18T06:53:22;96551.13;;;2.71;100.00
10097;BME280;5087;42.662;23.466;2022-12-18T06:55:50;96557.66;;;2.63;100.00
10097;BME280;5087;42.662;23.466;2022-12-18T06:58:17;96537.50;;;2.61;100.00
10097;BME280;5087;42.662;23.466;2022-12-18T07:00:44;96558.97;;;2.61;100.00
10097;BME280;5087;42.662;23.466;2022-12-18T07:03:12;96543.69;;;2.49;100.00
10097;BME280;5087;42.662;23.466;2022-12-18T07:05:42;96546.72;;;2.53;100.00
10097;BME280;5087;42.662;23.466;2022-12-18T07:08:12;96589.03;;;2.75;100.00
10097;BME280;5087;42.662;23.466;2022-12-18T07:10:43;96580.28;;;2.79;100.00
10097;BME280;5087;42.662;23.466;2022-12-18T07:13:11;96572.34;;;2.73;100.00
10097;BME280;5087;42.662;23.466;2022-12-18T07:15:38;96565.91;;;2.85;100.00
10097;BME280;5087;42.662;23.466;2022-12-18T07:18:05;96578.03;;;2.76;100.00
10097;BME280;5087;42.662;23.466;2022-12-18T07:20:32;96560.09;;;2.65;100.00
10097;BME280;5087;42.662;23.466;2022-12-18T07:23:03;96569.06;;;2.71;100.00
10097;BME280;5087;42.662;23.466;2022-12-18T07:25:33;96574.19;;;2.72;100.00
10097;BME280;5087;42.662;23.466;2022-12-18T07:28:00;96574.31;;;2.77;100.00
10097;BME280;5087;42.662;23.466;2022-12-18T07:30:27;96571.16;;;2.68;100.00
10097;BME280;5087;42.662;23.466;2022-12-18T07:32:54;96582.00;;;2.85;100.00
10097;BME280;5087;42.662;23.466;2022-12-18T07:35:21;96584.22;;;2.65;100.00
10097;BME280;5087;42.662;23.466;2022-12-18T07:37:48;96583.09;;;2.61;100.00
10097;BME280;5087;42.662;23.466;2022-12-18T07:40:18;96555.72;;;2.35;100.00
10097;BME280;5087;42.662;23.466;2022-12-18T07:42:46;96581.81;;;2.51;100.00
10097;BME280;5087;42.662;23.466;2022-12-18T07:45:14;96589.84;;;2.51;100.00
10097;BME280;5087;42.662;23.466;2022-12-18T07:47:41;96602.31;;;2.58;100.00
10097;BME280;5087;42.662;23.466;2022-12-18T07:50:08;96585.91;;;2.42;100.00
10097;BME280;5087;42.662;23.466;2022-12-18T07:52:35;96578.09;;;2.29;100.00
10097;BME280;5087;42.662;23.466;2022-12-18T07:55:04;96605.75;;;2.41;100.00
10097;BME280;5087;42.662;23.466;2022-12-18T07:57:33;96609.56;;;2.45;100.00
10097;BME280;5087;42.662;23.466;2022-12-18T08:00:00;96614.22;;;2.62;100.00
10097;BME280;5087;42.662;23.466;2022-12-18T08:02:30;96608.53;;;2.46;100.00
10097;BME280;5087;42.662;23.466;2022-12-18T08:04:57;96607.56;;;2.52;100.00
10097;BME280;5087;42.662;23.466;2022-12-18T08:07:25;96631.59;;;2.59;100.00
10097;BME280;5087;42.662;23.466;2022-12-18T08:09:52;96610.72;;;2.49;100.00
10097;BME280;5087;42.662;23.466;2022-12-18T08:12:19;96583.81;;;2.32;100.00
10097;BME280;5087;42.662;23.466;2022-12-18T08:14:48;96590.22;;;2.31;100.00
10097;BME280;5087;42.662;23.466;2022-12-18T08:17:15;96612.69;;;2.42;100.00
10097;BME280;5087;42.662;23.466;2022-12-18T08:19:43;96608.41;;;2.29;100.00
10097;BME280;5087;42.662;23.466;2022-12-18T08:22:12;96640.56;;;2.41;100.00
10097;BME280;5087;42.662;23.466;2022-12-18T08:24:40;96590.00;;;2.09;100.00
10097;BME280;5087;42.662;23.466;2022-12-18T08:27:11;96576.25;;;1.94;100.00
10097;BME280;5087;42.662;23.466;2022-12-18T08:29:42;96618.78;;;2.14;100.00
10097;BME280;5087;42.662;23.466;2022-12-18T08:32:12;96620.38;;;2.15;100.00
10097;BME280;5087;42.662;23.466;2022-12-18T08:34:40;96634.63;;;2.39;100.00
10097;BME280;5087;42.662;23.466;2022-12-18T08:37:08;96569.28;;;2.04;100.00
10097;BME280;5087;42.662;23.466;2022-12-18T08:39:38;96666.19;;;2.49;100.00
10097;BME280;5087;42.662;23.466;2022-12-18T08:42:06;96594.44;;;2.15;100.00
10097;BME280;5087;42.662;23.466;2022-12-18T08:44:51;96629.03;;;2.41;100.00
10097;BME280;5087;42.662;23.466;2022-12-18T08:47:40;96579.84;;;1.99;100.00
10097;BME280;5087;42.662;23.466;2022-12-18T08:50:14;96649.41;;;2.53;100.00
10097;BME280;5087;42.662;23.466;2022-12-18T08:52:42;96650.81;;;2.44;100.00
10097;BME280;5087;42.662;23.466;2022-12-18T08:55:15;96663.16;;;2.69;100.00
10097;BME280;5087;42.662;23.466;2022-12-18T08:57:48;96600.84;;;2.38;100.00
10097;BME280;5087;42.662;23.466;2022-12-18T09:00:16;96579.63;;;2.13;100.00
10097;BME280;5087;42.662;23.466;2022-12-18T09:02:51;96650.47;;;2.52;100.00
10097;BME280;5087;42.662;23.466;2022-12-18T09:05:36;96587.19;;;2.16;100.00
10097;BME280;5087;42.662;23.466;2022-12-18T09:08:10;96647.78;;;2.64;100.00
10097;BME280;5087;42.662;23.466;2022-12-18T09:10:44;96659.78;;;2.74;100.00
10097;BME280;5087;42.662;23.466;2022-12-18T09:13:14;96653.22;;;2.81;100.00
10097;BME280;5087;42.662;23.466;2022-12-18T09:15:48;96670.25;;;2.99;100.00
10097;BME280;5087;42.662;23.466;2022-12-18T09:18:21;96646.81;;;2.82;100.00
10097;BME280;5087;42.662;23.466;2022-12-18T09:20:48;96678.56;;;2.85;100.00
10097;BME280;5087;42.662;23.466;2022-12-18T09:23:18;96657.09;;;2.85;100.00
10097;BME280;5087;42.662;23.466;2022-12-18T09:25:45;96669.47;;;2.87;100.00
10097;BME280;5087;42.662;23.466;2022-12-18T09:28:14;96627.63;;;2.50;100.00
10097;BME280;5087;42.662;23.466;2022-12-18T09:30:45;96666.53;;;2.76;100.00
10097;BME280;5087;42.662;23.466;2022-12-18T09:33:13;96640.94;;;2.57;100.00
10097;BME280;5087;42.662;23.466;2022-12-18T09:35:45;96673.19;;;2.74;100.00
10097;BME280;5087;42.662;23.466;2022-12-18T09:38:20;96691.38;;;2.83;100.00
10097;BME280;5087;42.662;23.466;2022-12-18T09:40:52;96677.28;;;2.76;100.00
10097;BME280;5087;42.662;23.466;2022-12-18T09:43:24;96678.56;;;2.85;100.00
10097;BME280;5087;42.662;23.466;2022-12-18T09:45:56;96681.09;;;2.80;100.00
10097;BME280;5087;42.662;23.466;2022-12-18T09:48:28;96662.47;;;2.85;100.00
10097;BME280;5087;42.662;23.466;2022-12-18T09:51:02;96674.66;;;3.05;100.00
10097;BME280;5087;42.662;23.466;2022-12-18T09:53:35;96673.72;;;3.11;100.00
10097;BME280;5087;42.662;23.466;2022-12-18T09:56:12;96665.69;;;2.99;100.00
10097;BME280;5087;42.662;23.466;2022-12-18T09:58:47;96661.13;;;3.12;100.00
10097;BME280;5087;42.662;23.466;2022-12-18T10:01:21;96649.94;;;3.03;100.00
10097;BME280;5087;42.662;23.466;2022-12-18T10:03:50;96667.97;;;3.20;100.00
10097;BME280;5087;42.662;23.466;2022-12-18T10:06:22;96653.78;;;3.07;100.00
10097;BME280;5087;42.662;23.466;2022-12-18T10:08:55;96660.78;;;3.49;100.00
10097;BME280;5087;42.662;23.466;2022-12-18T10:11:34;96630.75;;;3.23;100.00
10097;BME280;5087;42.662;23.466;2022-12-18T10:14:13;96661.09;;;3.53;100.00
10097;BME280;5087;42.662;23.466;2022-12-18T10:16:52;96661.88;;;3.36;100.00
10097;BME280;5087;42.662;23.466;2022-12-18T10:19:34;96672.25;;;3.32;100.00
10097;BME280;5087;42.662;23.466;2022-12-18T10:22:12;96668.31;;;3.23;100.00
10097;BME280;5087;42.662;23.466;2022-12-18T10:24:48;96665.41;;;3.25;100.00
10097;BME280;5087;42.662;23.466;2022-12-18T10:27:23;96665.97;;;3.27;100.00
10097;BME280;5087;42.662;23.466;2022-12-18T10:29:51;96625.75;;;3.15;100.00
10097;BME280;5087;42.662;23.466;2022-12-18T10:32:20;96614.94;;;3.10;100.00
10097;BME280;5087;42.662;23.466;2022-12-18T10:34:48;96644.41;;;3.22;100.00
10097;BME280;5087;42.662;23.466;2022-12-18T10:37:19;96657.13;;;3.26;100.00
10097;BME280;5087;42.662;23.466;2022-12-18T10:40:07;96662.25;;;3.28;100.00
10097;BME280;5087;42.662;23.466;2022-12-18T10:42:35;96647.97;;;3.10;100.00
10097;BME280;5087;42.662;23.466;2022-12-18T10:45:07;96644.19;;;3.11;100.00
10097;BME280;5087;42.662;23.466;2022-12-18T10:47:36;96653.84;;;3.24;100.00
10097;BME280;5087;42.662;23.466;2022-12-18T10:50:19;96654.59;;;3.48;100.00
10097;BME280;5087;42.662;23.466;2022-12-18T10:52:55;96656.16;;;3.61;100.00
10097;BME280;5087;42.662;23.466;2022-12-18T10:55:32;96648.44;;;3.65;100.00
10097;BME280;5087;42.662;23.466;2022-12-18T10:58:16;96654.38;;;3.67;100.00
10097;BME280;5087;42.662;23.466;2022-12-18T11:01:02;96645.19;;;3.63;100.00
10097;BME280;5087;42.662;23.466;2022-12-18T11:03:34;96655.28;;;3.56;100.00
10097;BME280;5087;42.662;23.466;2022-12-18T11:06:07;96653.13;;;3.58;100.00
10097;BME280;5087;42.662;23.466;2022-12-18T11:08:37;96654.47;;;3.72;100.00
10097;BME280;5087;42.662;23.466;2022-12-18T11:11:09;96661.06;;;3.64;100.00
10097;BME280;5087;42.662;23.466;2022-12-18T11:13:54;96644.81;;;3.71;100.00
10097;BME280;5087;42.662;23.466;2022-12-18T11:16:24;96636.75;;;3.71;100.00
10097;BME280;5087;42.662;23.466;2022-12-18T11:18:51;96642.44;;;3.75;100.00
10097;BME280;5087;42.662;23.466;2022-12-18T11:21:19;96648.88;;;3.74;100.00
10097;BME280;5087;42.662;23.466;2022-12-18T11:23:49;96651.28;;;3.58;100.00
10097;BME280;5087;42.662;23.466;2022-12-18T11:26:18;96639.50;;;3.59;100.00
10097;BME280;5087;42.662;23.466;2022-12-18T11:28:48;96659.50;;;3.69;100.00
10097;BME280;5087;42.662;23.466;2022-12-18T11:31:22;96639.56;;;3.64;100.00
10097;BME280;5087;42.662;23.466;2022-12-18T11:33:54;96646.94;;;3.86;100.00
10097;BME280;5087;42.662;23.466;2022-12-18T11:36:29;96656.75;;;3.63;100.00
10097;BME280;5087;42.662;23.466;2022-12-18T11:39:03;96650.41;;;3.70;100.00
10097;BME280;5087;42.662;23.466;2022-12-18T11:41:37;96638.84;;;3.69;100.00
10097;BME280;5087;42.662;23.466;2022-12-18T11:44:28;96648.03;;;3.73;100.00
10097;BME280;5087;42.662;23.466;2022-12-18T11:47:00;96650.56;;;3.63;100.00
10097;BME280;5087;42.662;23.466;2022-12-18T11:49:33;96656.75;;;3.63;100.00
10097;BME280;5087;42.662;23.466;2022-12-18T11:52:14;96656.06;;;3.56;100.00
10097;BME280;5087;42.662;23.466;2022-12-18T11:54:45;96653.72;;;3.60;100.00
10097;BME280;5087;42.662;23.466;2022-12-18T11:57:18;96645.84;;;3.70;100.00
10097;BME280;5087;42.662;23.466;2022-12-18T11:59:55;96650.31;;;3.64;100.00
10097;BME280;5087;42.662;23.466;2022-12-18T12:02:53;96635.41;;;3.57;100.00
10097;BME280;5087;42.662;23.466;2022-12-18T12:05:44;96631.66;;;3.58;100.00
10097;BME280;5087;42.662;23.466;2022-12-18T12:08:20;96650.06;;;3.66;100.00
10097;BME280;5087;42.662;23.466;2022-12-18T12:10:56;96652.66;;;3.61;100.00
10097;BME280;5087;42.662;23.466;2022-12-18T12:13:38;96630.53;;;3.54;100.00
10097;BME280;5087;42.662;23.466;2022-12-18T12:16:14;96651.84;;;3.60;100.00
10097;BME280;5087;42.662;23.466;2022-12-18T12:18:55;96647.50;;;3.71;100.00
10097;BME280;5087;42.662;23.466;2022-12-18T12:21:32;96652.03;;;3.71;100.00
10097;BME280;5087;42.662;23.466;2022-12-18T12:24:09;96631.19;;;3.61;100.00
10097;BME280;5087;42.662;23.466;2022-12-18T12:26:47;96647.50;;;3.71;100.00
10097;BME280;5087;42.662;23.466;2022-12-18T12:29:26;96644.22;;;3.69;100.00
10097;BME280;5087;42.662;23.466;2022-12-18T12:32:13;96653.91;;;3.70;100.00
10097;BME280;5087;42.662;23.466;2022-12-18T12:34:57;96653.28;;;3.80;100.00
10097;BME280;5087;42.662;23.466;2022-12-18T12:37:35;96634.91;;;3.60;100.00
10097;BME280;5087;42.662;23.466;2022-12-18T12:40:11;96617.63;;;3.39;100.00
10097;BME280;5087;42.662;23.466;2022-12-18T12:42:46;96659.75;;;3.67;100.00
10097;BME280;5087;42.662;23.466;2022-12-18T12:45:36;96648.22;;;3.67;100.00
10097;BME280;5087;42.662;23.466;2022-12-18T12:48:07;96659.38;;;3.75;100.00
10097;BME280;5087;42.662;23.466;2022-12-18T12:50:40;96660.91;;;3.71;100.00
10097;BME280;5087;42.662;23.466;2022-12-18T12:53:21;96652.03;;;3.71;100.00
10097;BME280;5087;42.662;23.466;2022-12-18T12:55:50;96667.34;;;3.70;100.00
10097;BME280;5087;42.662;23.466;2022-12-18T12:58:27;96655.94;;;3.63;100.00
10097;BME280;5087;42.662;23.466;2022-12-18T13:01:04;96681.53;;;3.83;100.00
10097;BME280;5087;42.662;23.466;2022-12-18T13:03:43;96670.59;;;3.72;100.00
10097;BME280;5087;42.662;23.466;2022-12-18T13:06:22;96686.81;;;3.77;100.00
10097;BME280;5087;42.662;23.466;2022-12-18T13:08:55;96677.50;;;3.68;100.00
10097;BME280;5087;42.662;23.466;2022-12-18T13:11:32;96669.53;;;3.73;100.00
10097;BME280;5087;42.662;23.466;2022-12-18T13:14:26;96689.13;;;3.86;100.00
10097;BME280;5087;42.662;23.466;2022-12-18T13:17:24;96687.09;;;3.93;100.00
10097;BME280;5087;42.662;23.466;2022-12-18T13:20:09;96669.97;;;3.82;100.00
10097;BME280;5087;42.662;23.466;2022-12-18T13:22:40;96668.09;;;3.83;100.00
10097;BME280;5087;42.662;23.466;2022-12-18T13:25:37;96696.88;;;3.99;100.00
10097;BME280;5087;42.662;23.466;2022-12-18T13:28:10;96696.84;;;3.82;100.00